Portada
METAR-TAF:

METAR-TAF

Aeroports :

Porterville Municipal Airport

Porterville, Califòrnia, Estats Units d'Amèrica

latitud: 36-02N, longitud: 119-04W, altitud: 135 m

Observació

L'informe es va fer fa 6 minuts, a les 16:56 UTC
Vent calma
Temperatura 16°C
Humitat 63%
Pressió 1029 hPa
Visibilitat: 16.1 km
Cel clar

METAR: KPTV 261656Z AUTO 00000KT 10SM CLR 16/09 A3038 RMK AO2 SLP286 T01560089

Hora: 09:02 (17:02 UTC)


TAF: manca

Observacions i pronòstics meteorològics de més de 4000 aeroports (METAR i TAF).

Les estacions disponibles són els punts grocs i vermells al mapa.

Posi el ratolí al punt desitjat per veure el nom de l'estació.

Feu clic per veure les observacions i els pronòstics meteorològics.

Per canviar el mapa: feu clic els botons verds amb una creu de color negre per apropar; al botó verd amb un guió per allunyar la imatge; o en les fletxes verdes per a mapes adjacents.


METAR-TAF: